Terminal Aerodrome Forecast
Issued by NWS

Home | Current Version | Previous Version | Text Only | Print | Product List | Glossary On
Versions: 1 2 3 4 5 6 7 8 9 10 11 12 13 14 15 16 17 18
000
FTUS43 KJKL 260800 AAA
TAFSME
TAF AMD
KSME 260848Z 2609/2706 23005KT 3SM -RA OVC005
     FM261000 30008KT 2SM -RASN OVC005
     FM261300 31009G15KT 3SM -SHSN OVC004
     FM261800 30009G15KT P6SM VCSH OVC012=

USA.gov is the U.S. government's official web portal to all federal, state and local government web resources and services.